sensor_id;sensor_type;location;lat;lon;timestamp;temperature;humidity
11894;DHT22;6006;49.696;8.662;2023-02-12T00:01:14;3.80;99.90
11894;DHT22;6006;49.696;8.662;2023-02-12T00:03:41;3.80;99.90
11894;DHT22;6006;49.696;8.662;2023-02-12T00:06:09;3.80;99.90
11894;DHT22;6006;49.696;8.662;2023-02-12T00:08:38;3.80;99.90
11894;DHT22;6006;49.696;8.662;2023-02-12T00:11:10;3.80;99.90
11894;DHT22;6006;49.696;8.662;2023-02-12T00:13:37;3.90;99.90
11894;DHT22;6006;49.696;8.662;2023-02-12T00:16:06;3.90;99.90
11894;DHT22;6006;49.696;8.662;2023-02-12T00:18:34;3.90;99.90
11894;DHT22;6006;49.696;8.662;2023-02-12T00:21:01;3.90;99.90
11894;DHT22;6006;49.696;8.662;2023-02-12T00:23:28;3.90;99.90
11894;DHT22;6006;49.696;8.662;2023-02-12T00:25:57;3.90;99.90
11894;DHT22;6006;49.696;8.662;2023-02-12T00:28:24;3.90;99.90
11894;DHT22;6006;49.696;8.662;2023-02-12T00:30:51;3.80;99.90
11894;DHT22;6006;49.696;8.662;2023-02-12T00:33:17;3.90;99.90
11894;DHT22;6006;49.696;8.662;2023-02-12T00:35:54;3.90;99.90
11894;DHT22;6006;49.696;8.662;2023-02-12T00:38:21;3.90;99.90
11894;DHT22;6006;49.696;8.662;2023-02-12T00:40:48;3.90;99.90
11894;DHT22;6006;49.696;8.662;2023-02-12T00:43:16;3.90;99.90
11894;DHT22;6006;49.696;8.662;2023-02-12T00:45:44;3.90;99.90
11894;DHT22;6006;49.696;8.662;2023-02-12T00:48:11;3.90;99.90
11894;DHT22;6006;49.696;8.662;2023-02-12T00:50:38;4.00;99.90
11894;DHT22;6006;49.696;8.662;2023-02-12T00:53:05;4.00;99.90
11894;DHT22;6006;49.696;8.662;2023-02-12T00:55:33;4.00;99.90
11894;DHT22;6006;49.696;8.662;2023-02-12T00:58:00;3.90;99.90
11894;DHT22;6006;49.696;8.662;2023-02-12T01:00:28;3.90;99.90
11894;DHT22;6006;49.696;8.662;2023-02-12T01:02:55;4.00;99.90
11894;DHT22;6006;49.696;8.662;2023-02-12T01:05:22;3.90;99.90
11894;DHT22;6006;49.696;8.662;2023-02-12T01:07:49;3.90;99.90
11894;DHT22;6006;49.696;8.662;2023-02-12T01:10:18;3.90;99.90
11894;DHT22;6006;49.696;8.662;2023-02-12T01:12:46;3.90;99.90
11894;DHT22;6006;49.696;8.662;2023-02-12T01:15:14;3.90;99.90
11894;DHT22;6006;49.696;8.662;2023-02-12T01:17:42;3.90;99.90
11894;DHT22;6006;49.696;8.662;2023-02-12T01:20:12;3.90;99.90
11894;DHT22;6006;49.696;8.662;2023-02-12T01:22:42;4.00;99.90
11894;DHT22;6006;49.696;8.662;2023-02-12T01:25:11;4.00;99.90
11894;DHT22;6006;49.696;8.662;2023-02-12T01:27:38;4.00;99.90
11894;DHT22;6006;49.696;8.662;2023-02-12T01:30:07;4.00;99.90
11894;DHT22;6006;49.696;8.662;2023-02-12T01:32:34;4.00;99.90
11894;DHT22;6006;49.696;8.662;2023-02-12T01:35:04;4.00;99.90
11894;DHT22;6006;49.696;8.662;2023-02-12T01:37:33;4.00;99.90
11894;DHT22;6006;49.696;8.662;2023-02-12T01:40:00;4.00;99.90
11894;DHT22;6006;49.696;8.662;2023-02-12T01:42:27;4.00;99.90
11894;DHT22;6006;49.696;8.662;2023-02-12T01:48:10;4.10;99.90
11894;DHT22;6006;49.696;8.662;2023-02-12T01:50:38;4.00;99.90
11894;DHT22;6006;49.696;8.662;2023-02-12T01:53:07;4.00;99.90
11894;DHT22;6006;49.696;8.662;2023-02-12T01:55:34;4.00;99.90
11894;DHT22;6006;49.696;8.662;2023-02-12T01:58:01;4.00;99.90
11894;DHT22;6006;49.696;8.662;2023-02-12T02:00:29;4.00;99.90
11894;DHT22;6006;49.696;8.662;2023-02-12T02:02:59;4.00;99.90
11894;DHT22;6006;49.696;8.662;2023-02-12T02:05:32;4.00;99.90
11894;DHT22;6006;49.696;8.662;2023-02-12T02:08:02;4.00;99.90
11894;DHT22;6006;49.696;8.662;2023-02-12T02:10:29;4.00;99.90
11894;DHT22;6006;49.696;8.662;2023-02-12T02:12:57;4.10;99.90
11894;DHT22;6006;49.696;8.662;2023-02-12T02:15:44;4.10;99.90
11894;DHT22;6006;49.696;8.662;2023-02-12T02:18:18;4.00;99.90
11894;DHT22;6006;49.696;8.662;2023-02-12T02:21:17;4.10;99.90
11894;DHT22;6006;49.696;8.662;2023-02-12T02:24:18;4.10;99.90
11894;DHT22;6006;49.696;8.662;2023-02-12T02:32:47;4.10;99.90
11894;DHT22;6006;49.696;8.662;2023-02-12T02:35:23;4.10;99.90
11894;DHT22;6006;49.696;8.662;2023-02-12T02:38:05;4.10;99.90
11894;DHT22;6006;49.696;8.662;2023-02-12T02:40:38;4.10;99.90
11894;DHT22;6006;49.696;8.662;2023-02-12T02:43:09;4.10;99.90
11894;DHT22;6006;49.696;8.662;2023-02-12T02:45:42;4.00;99.90
11894;DHT22;6006;49.696;8.662;2023-02-12T02:48:16;4.00;99.90
11894;DHT22;6006;49.696;8.662;2023-02-12T02:50:47;4.00;99.90
11894;DHT22;6006;49.696;8.662;2023-02-12T02:53:18;4.00;99.90
11894;DHT22;6006;49.696;8.662;2023-02-12T02:55:51;4.10;99.90
11894;DHT22;6006;49.696;8.662;2023-02-12T02:58:22;4.00;99.90
11894;DHT22;6006;49.696;8.662;2023-02-12T03:00:55;4.00;99.90
11894;DHT22;6006;49.696;8.662;2023-02-12T03:03:27;4.00;99.90
11894;DHT22;6006;49.696;8.662;2023-02-12T03:05:59;4.00;99.90
11894;DHT22;6006;49.696;8.662;2023-02-12T03:08:30;4.00;99.90
11894;DHT22;6006;49.696;8.662;2023-02-12T03:11:05;4.00;99.90
11894;DHT22;6006;49.696;8.662;2023-02-12T03:13:36;4.00;99.90
11894;DHT22;6006;49.696;8.662;2023-02-12T03:16:06;4.00;99.90
11894;DHT22;6006;49.696;8.662;2023-02-12T03:18:41;4.00;99.90
11894;DHT22;6006;49.696;8.662;2023-02-12T03:21:12;4.10;99.90
11894;DHT22;6006;49.696;8.662;2023-02-12T03:23:45;4.10;99.90
11894;DHT22;6006;49.696;8.662;2023-02-12T03:26:16;4.10;99.90
11894;DHT22;6006;49.696;8.662;2023-02-12T03:28:45;4.10;99.90
11894;DHT22;6006;49.696;8.662;2023-02-12T03:31:20;4.10;99.90
11894;DHT22;6006;49.696;8.662;2023-02-12T03:34:03;4.10;99.90
11894;DHT22;6006;49.696;8.662;2023-02-12T03:36:37;4.10;99.90
11894;DHT22;6006;49.696;8.662;2023-02-12T03:39:11;4.10;99.90
11894;DHT22;6006;49.696;8.662;2023-02-12T03:41:42;4.10;99.90
11894;DHT22;6006;49.696;8.662;2023-02-12T03:44:17;4.10;99.90
11894;DHT22;6006;49.696;8.662;2023-02-12T03:46:56;4.10;99.90
11894;DHT22;6006;49.696;8.662;2023-02-12T03:49:27;4.10;99.90
11894;DHT22;6006;49.696;8.662;2023-02-12T03:51:56;4.10;99.90
11894;DHT22;6006;49.696;8.662;2023-02-12T03:54:24;4.10;99.90
11894;DHT22;6006;49.696;8.662;2023-02-12T03:56:55;4.10;99.90
11894;DHT22;6006;49.696;8.662;2023-02-12T03:59:24;4.10;99.90
11894;DHT22;6006;49.696;8.662;2023-02-12T04:01:53;4.10;99.90
11894;DHT22;6006;49.696;8.662;2023-02-12T04:04:22;4.10;99.90
11894;DHT22;6006;49.696;8.662;2023-02-12T04:06:51;4.10;99.90
11894;DHT22;6006;49.696;8.662;2023-02-12T04:09:19;4.10;99.90
11894;DHT22;6006;49.696;8.662;2023-02-12T04:11:58;4.10;99.90
11894;DHT22;6006;49.696;8.662;2023-02-12T04:14:37;4.10;99.90
11894;DHT22;6006;49.696;8.662;2023-02-12T04:17:11;4.10;99.90
11894;DHT22;6006;49.696;8.662;2023-02-12T04:19:54;4.10;99.90
11894;DHT22;6006;49.696;8.662;2023-02-12T04:22:33;4.20;99.90
11894;DHT22;6006;49.696;8.662;2023-02-12T04:25:31;4.10;99.90
11894;DHT22;6006;49.696;8.662;2023-02-12T04:28:08;4.20;99.90
11894;DHT22;6006;49.696;8.662;2023-02-12T04:30:40;4.20;99.90
11894;DHT22;6006;49.696;8.662;2023-02-12T04:33:12;4.20;99.90
11894;DHT22;6006;49.696;8.662;2023-02-12T04:35:47;4.20;99.90
11894;DHT22;6006;49.696;8.662;2023-02-12T04:38:20;4.20;99.90
11894;DHT22;6006;49.696;8.662;2023-02-12T04:40:48;4.20;99.90
11894;DHT22;6006;49.696;8.662;2023-02-12T04:43:25;4.20;99.90
11894;DHT22;6006;49.696;8.662;2023-02-12T04:45:52;4.20;99.90
11894;DHT22;6006;49.696;8.662;2023-02-12T04:48:19;4.20;99.90
11894;DHT22;6006;49.696;8.662;2023-02-12T04:50:46;4.20;99.90
11894;DHT22;6006;49.696;8.662;2023-02-12T04:53:14;4.20;99.90
11894;DHT22;6006;49.696;8.662;2023-02-12T04:55:43;4.20;99.90
11894;DHT22;6006;49.696;8.662;2023-02-12T04:58:10;4.30;99.90
11894;DHT22;6006;49.696;8.662;2023-02-12T05:00:37;4.30;99.90
11894;DHT22;6006;49.696;8.662;2023-02-12T05:03:04;4.20;99.90
11894;DHT22;6006;49.696;8.662;2023-02-12T05:05:31;4.20;99.90
11894;DHT22;6006;49.696;8.662;2023-02-12T05:07:58;4.20;99.90
11894;DHT22;6006;49.696;8.662;2023-02-12T05:10:25;4.10;99.90
11894;DHT22;6006;49.696;8.662;2023-02-12T05:12:54;4.10;99.90
11894;DHT22;6006;49.696;8.662;2023-02-12T05:15:21;4.00;99.90
11894;DHT22;6006;49.696;8.662;2023-02-12T05:17:48;4.00;99.90
11894;DHT22;6006;49.696;8.662;2023-02-12T05:20:15;3.90;99.90
11894;DHT22;6006;49.696;8.662;2023-02-12T05:22:42;3.90;99.90
11894;DHT22;6006;49.696;8.662;2023-02-12T05:25:08;3.90;99.90
11894;DHT22;6006;49.696;8.662;2023-02-12T05:27:36;4.00;99.90
11894;DHT22;6006;49.696;8.662;2023-02-12T05:30:05;4.00;99.90
11894;DHT22;6006;49.696;8.662;2023-02-12T05:32:34;4.00;99.90
11894;DHT22;6006;49.696;8.662;2023-02-12T05:35:01;4.00;99.90
11894;DHT22;6006;49.696;8.662;2023-02-12T05:37:28;4.00;99.90
11894;DHT22;6006;49.696;8.662;2023-02-12T05:39:56;4.00;99.90
11894;DHT22;6006;49.696;8.662;2023-02-12T05:42:22;4.00;99.90
11894;DHT22;6006;49.696;8.662;2023-02-12T05:44:49;4.00;99.90
11894;DHT22;6006;49.696;8.662;2023-02-12T05:47:18;4.10;99.90
11894;DHT22;6006;49.696;8.662;2023-02-12T05:49:45;4.20;99.90
11894;DHT22;6006;49.696;8.662;2023-02-12T05:52:11;4.20;99.90
11894;DHT22;6006;49.696;8.662;2023-02-12T05:54:38;4.30;99.90
11894;DHT22;6006;49.696;8.662;2023-02-12T05:57:06;4.30;99.90
11894;DHT22;6006;49.696;8.662;2023-02-12T05:59:33;4.30;99.90
11894;DHT22;6006;49.696;8.662;2023-02-12T06:01:59;4.30;99.90
11894;DHT22;6006;49.696;8.662;2023-02-12T06:04:28;4.30;99.90
11894;DHT22;6006;49.696;8.662;2023-02-12T06:06:55;4.30;99.90
11894;DHT22;6006;49.696;8.662;2023-02-12T06:09:22;4.40;99.90
11894;DHT22;6006;49.696;8.662;2023-02-12T06:11:49;4.40;99.90
11894;DHT22;6006;49.696;8.662;2023-02-12T06:14:18;4.40;99.90
11894;DHT22;6006;49.696;8.662;2023-02-12T06:16:45;4.40;99.90
11894;DHT22;6006;49.696;8.662;2023-02-12T06:19:12;4.40;99.90
11894;DHT22;6006;49.696;8.662;2023-02-12T06:21:41;4.50;99.90
11894;DHT22;6006;49.696;8.662;2023-02-12T06:24:09;4.50;99.90
11894;DHT22;6006;49.696;8.662;2023-02-12T06:26:37;4.50;99.90
11894;DHT22;6006;49.696;8.662;2023-02-12T06:29:04;4.50;99.90
11894;DHT22;6006;49.696;8.662;2023-02-12T06:31:32;4.50;99.90
11894;DHT22;6006;49.696;8.662;2023-02-12T06:34:02;4.50;99.90
11894;DHT22;6006;49.696;8.662;2023-02-12T06:36:29;4.50;99.90
11894;DHT22;6006;49.696;8.662;2023-02-12T06:38:59;4.50;99.90
11894;DHT22;6006;49.696;8.662;2023-02-12T06:41:26;4.40;99.90
11894;DHT22;6006;49.696;8.662;2023-02-12T06:43:53;4.40;99.90
11894;DHT22;6006;49.696;8.662;2023-02-12T06:46:21;4.40;99.90
11894;DHT22;6006;49.696;8.662;2023-02-12T06:48:47;4.40;99.90
11894;DHT22;6006;49.696;8.662;2023-02-12T06:51:17;4.40;99.90
11894;DHT22;6006;49.696;8.662;2023-02-12T06:53:46;4.40;99.90
11894;DHT22;6006;49.696;8.662;2023-02-12T06:56:15;4.40;99.90
11894;DHT22;6006;49.696;8.662;2023-02-12T06:58:44;4.50;99.90
11894;DHT22;6006;49.696;8.662;2023-02-12T07:01:13;4.50;99.90
11894;DHT22;6006;49.696;8.662;2023-02-12T07:03:43;4.40;99.90
11894;DHT22;6006;49.696;8.662;2023-02-12T07:06:10;4.50;99.90
11894;DHT22;6006;49.696;8.662;2023-02-12T07:08:37;4.50;99.90
11894;DHT22;6006;49.696;8.662;2023-02-12T07:11:04;4.50;99.90
11894;DHT22;6006;49.696;8.662;2023-02-12T07:13:33;4.50;99.90
11894;DHT22;6006;49.696;8.662;2023-02-12T07:16:03;4.60;99.90
11894;DHT22;6006;49.696;8.662;2023-02-12T07:18:31;4.60;99.90
11894;DHT22;6006;49.696;8.662;2023-02-12T07:20:58;4.60;99.90
11894;DHT22;6006;49.696;8.662;2023-02-12T07:23:25;4.70;99.90
11894;DHT22;6006;49.696;8.662;2023-02-12T07:25:56;4.70;99.90
11894;DHT22;6006;49.696;8.662;2023-02-12T07:28:23;5.00;99.90
11894;DHT22;6006;49.696;8.662;2023-02-12T07:30:51;5.10;99.90
11894;DHT22;6006;49.696;8.662;2023-02-12T07:33:19;5.10;99.90
11894;DHT22;6006;49.696;8.662;2023-02-12T07:35:46;5.30;99.90
11894;DHT22;6006;49.696;8.662;2023-02-12T07:38:13;5.30;99.90
11894;DHT22;6006;49.696;8.662;2023-02-12T07:40:39;5.20;99.90
11894;DHT22;6006;49.696;8.662;2023-02-12T07:43:06;5.20;99.90
11894;DHT22;6006;49.696;8.662;2023-02-12T07:45:33;5.20;99.90
11894;DHT22;6006;49.696;8.662;2023-02-12T07:48:02;5.20;99.90
11894;DHT22;6006;49.696;8.662;2023-02-12T07:50:28;5.20;99.90
11894;DHT22;6006;49.696;8.662;2023-02-12T07:52:55;5.20;99.90
11894;DHT22;6006;49.696;8.662;2023-02-12T07:55:22;5.30;99.90
11894;DHT22;6006;49.696;8.662;2023-02-12T07:57:50;5.30;99.90
11894;DHT22;6006;49.696;8.662;2023-02-12T08:00:18;5.30;99.90
11894;DHT22;6006;49.696;8.662;2023-02-12T08:02:50;5.40;99.90
11894;DHT22;6006;49.696;8.662;2023-02-12T08:05:19;5.50;99.90
11894;DHT22;6006;49.696;8.662;2023-02-12T08:07:46;5.60;99.90
11894;DHT22;6006;49.696;8.662;2023-02-12T08:10:13;5.60;99.90
11894;DHT22;6006;49.696;8.662;2023-02-12T08:12:39;5.70;99.90
11894;DHT22;6006;49.696;8.662;2023-02-12T08:15:07;5.80;99.90
11894;DHT22;6006;49.696;8.662;2023-02-12T08:17:34;5.80;99.90
11894;DHT22;6006;49.696;8.662;2023-02-12T08:20:01;5.80;99.90
11894;DHT22;6006;49.696;8.662;2023-02-12T08:22:29;5.90;99.90
11894;DHT22;6006;49.696;8.662;2023-02-12T08:24:56;6.00;99.90
11894;DHT22;6006;49.696;8.662;2023-02-12T08:27:23;6.00;99.90
11894;DHT22;6006;49.696;8.662;2023-02-12T08:29:50;6.10;99.90
11894;DHT22;6006;49.696;8.662;2023-02-12T08:32:17;6.10;99.90
11894;DHT22;6006;49.696;8.662;2023-02-12T08:34:44;6.20;99.90
11894;DHT22;6006;49.696;8.662;2023-02-12T08:37:11;6.20;99.90
11894;DHT22;6006;49.696;8.662;2023-02-12T08:39:39;6.30;99.90
11894;DHT22;6006;49.696;8.662;2023-02-12T08:42:06;6.30;99.90
11894;DHT22;6006;49.696;8.662;2023-02-12T08:44:33;6.30;99.90
11894;DHT22;6006;49.696;8.662;2023-02-12T08:47:00;6.40;99.90
11894;DHT22;6006;49.696;8.662;2023-02-12T08:49:30;6.50;99.90
11894;DHT22;6006;49.696;8.662;2023-02-12T08:51:58;6.50;99.90
11894;DHT22;6006;49.696;8.662;2023-02-12T08:54:27;6.50;99.90
11894;DHT22;6006;49.696;8.662;2023-02-12T08:56:57;6.60;99.90
11894;DHT22;6006;49.696;8.662;2023-02-12T08:59:25;6.60;99.90
11894;DHT22;6006;49.696;8.662;2023-02-12T09:01:52;6.70;99.90
11894;DHT22;6006;49.696;8.662;2023-02-12T09:04:22;6.60;99.90
11894;DHT22;6006;49.696;8.662;2023-02-12T09:06:50;6.70;99.90
11894;DHT22;6006;49.696;8.662;2023-02-12T09:09:17;6.80;99.90
11894;DHT22;6006;49.696;8.662;2023-02-12T09:11:44;6.90;99.90
11894;DHT22;6006;49.696;8.662;2023-02-12T09:14:15;6.80;99.90
11894;DHT22;6006;49.696;8.662;2023-02-12T09:16:43;6.80;99.90
11894;DHT22;6006;49.696;8.662;2023-02-12T09:19:11;6.90;99.90
11894;DHT22;6006;49.696;8.662;2023-02-12T09:21:39;6.90;99.90
11894;DHT22;6006;49.696;8.662;2023-02-12T09:24:06;7.00;99.90
11894;DHT22;6006;49.696;8.662;2023-02-12T09:26:33;7.00;99.90
11894;DHT22;6006;49.696;8.662;2023-02-12T09:29:01;7.10;99.90
11894;DHT22;6006;49.696;8.662;2023-02-12T09:31:30;7.30;99.90
11894;DHT22;6006;49.696;8.662;2023-02-12T09:33:59;7.30;99.90
11894;DHT22;6006;49.696;8.662;2023-02-12T09:36:27;7.40;99.90
11894;DHT22;6006;49.696;8.662;2023-02-12T09:38:55;7.40;99.90
11894;DHT22;6006;49.696;8.662;2023-02-12T09:41:43;7.50;99.90
11894;DHT22;6006;49.696;8.662;2023-02-12T09:44:17;7.60;99.90
11894;DHT22;6006;49.696;8.662;2023-02-12T09:46:50;7.70;99.90
11894;DHT22;6006;49.696;8.662;2023-02-12T09:49:34;7.90;99.90
11894;DHT22;6006;49.696;8.662;2023-02-12T09:52:05;8.20;99.90
11894;DHT22;6006;49.696;8.662;2023-02-12T09:54:38;8.40;99.90
11894;DHT22;6006;49.696;8.662;2023-02-12T09:57:14;8.60;99.90
11894;DHT22;6006;49.696;8.662;2023-02-12T09:59:45;8.60;99.90
11894;DHT22;6006;49.696;8.662;2023-02-12T10:02:16;8.70;99.90
11894;DHT22;6006;49.696;8.662;2023-02-12T10:04:44;8.70;99.90
11894;DHT22;6006;49.696;8.662;2023-02-12T10:07:21;8.70;99.90
11894;DHT22;6006;49.696;8.662;2023-02-12T10:10:10;8.70;98.30
11894;DHT22;6006;49.696;8.662;2023-02-12T10:12:46;8.70;99.90
11894;DHT22;6006;49.696;8.662;2023-02-12T10:15:25;8.80;99.90
11894;DHT22;6006;49.696;8.662;2023-02-12T10:18:03;8.80;99.90
11894;DHT22;6006;49.696;8.662;2023-02-12T10:20:50;8.90;99.90
11894;DHT22;6006;49.696;8.662;2023-02-12T10:23:40;8.90;66.80
11894;DHT22;6006;49.696;8.662;2023-02-12T10:26:18;9.00;48.70
11894;DHT22;6006;49.696;8.662;2023-02-12T10:28:45;9.00;26.80
11894;DHT22;6006;49.696;8.662;2023-02-12T10:31:16;9.10;43.50
11894;DHT22;6006;49.696;8.662;2023-02-12T10:33:48;9.10;18.40
11894;DHT22;6006;49.696;8.662;2023-02-12T10:36:26;9.20;18.30
11894;DHT22;6006;49.696;8.662;2023-02-12T10:38:59;9.30;1.00
11894;DHT22;6006;49.696;8.662;2023-02-12T10:41:29;9.30;1.00
11894;DHT22;6006;49.696;8.662;2023-02-12T10:44:00;9.30;1.00
11894;DHT22;6006;49.696;8.662;2023-02-12T10:46:29;9.40;1.00
11894;DHT22;6006;49.696;8.662;2023-02-12T10:48:59;9.40;1.00
11894;DHT22;6006;49.696;8.662;2023-02-12T10:51:38;9.50;1.00
11894;DHT22;6006;49.696;8.662;2023-02-12T10:54:31;9.60;1.00
11894;DHT22;6006;49.696;8.662;2023-02-12T10:56:59;9.70;1.00
11894;DHT22;6006;49.696;8.662;2023-02-12T10:59:30;9.80;1.00
11894;DHT22;6006;49.696;8.662;2023-02-12T11:01:57;9.80;1.00
11894;DHT22;6006;49.696;8.662;2023-02-12T11:04:27;9.90;1.00
11894;DHT22;6006;49.696;8.662;2023-02-12T11:06:58;10.00;1.00
11894;DHT22;6006;49.696;8.662;2023-02-12T11:09:28;10.00;1.00
11894;DHT22;6006;49.696;8.662;2023-02-12T11:11:55;10.00;1.00
11894;DHT22;6006;49.696;8.662;2023-02-12T11:14:23;9.90;1.00
11894;DHT22;6006;49.696;8.662;2023-02-12T11:16:52;10.00;1.00
11894;DHT22;6006;49.696;8.662;2023-02-12T11:19:21;10.10;1.00
11894;DHT22;6006;49.696;8.662;2023-02-12T11:21:50;10.10;1.00
11894;DHT22;6006;49.696;8.662;2023-02-12T11:24:28;10.20;1.00
11894;DHT22;6006;49.696;8.662;2023-02-12T11:27:17;10.40;1.00
11894;DHT22;6006;49.696;8.662;2023-02-12T11:29:45;10.50;99.90
11894;DHT22;6006;49.696;8.662;2023-02-12T11:32:16;10.70;99.90
11894;DHT22;6006;49.696;8.662;2023-02-12T11:34:43;10.80;99.90
11894;DHT22;6006;49.696;8.662;2023-02-12T11:37:16;11.00;99.90
11894;DHT22;6006;49.696;8.662;2023-02-12T11:39:46;11.20;1.00
11894;DHT22;6006;49.696;8.662;2023-02-12T11:42:16;11.10;1.00
11894;DHT22;6006;49.696;8.662;2023-02-12T11:44:48;11.20;1.00
11894;DHT22;6006;49.696;8.662;2023-02-12T11:47:18;11.60;99.90
11894;DHT22;6006;49.696;8.662;2023-02-12T11:49:50;11.90;99.90
11894;DHT22;6006;49.696;8.662;2023-02-12T11:52:22;12.40;1.00
11894;DHT22;6006;49.696;8.662;2023-02-12T11:54:50;12.60;1.00
11894;DHT22;6006;49.696;8.662;2023-02-12T11:57:37;12.90;99.90
11894;DHT22;6006;49.696;8.662;2023-02-12T12:00:13;13.00;99.90
11894;DHT22;6006;49.696;8.662;2023-02-12T12:02:44;12.90;1.00
11894;DHT22;6006;49.696;8.662;2023-02-12T12:05:17;12.90;1.00
11894;DHT22;6006;49.696;8.662;2023-02-12T12:07:50;12.90;55.70
11894;DHT22;6006;49.696;8.662;2023-02-12T12:10:24;13.10;1.00
11894;DHT22;6006;49.696;8.662;2023-02-12T12:12:57;12.80;1.00
11894;DHT22;6006;49.696;8.662;2023-02-12T12:15:30;12.90;99.90
11894;DHT22;6006;49.696;8.662;2023-02-12T12:18:33;12.90;1.00
11894;DHT22;6006;49.696;8.662;2023-02-12T12:21:25;12.60;1.00
11894;DHT22;6006;49.696;8.662;2023-02-12T12:23:57;12.40;1.00
11894;DHT22;6006;49.696;8.662;2023-02-12T12:26:27;12.40;99.90
11894;DHT22;6006;49.696;8.662;2023-02-12T12:29:01;12.40;82.60
11894;DHT22;6006;49.696;8.662;2023-02-12T12:31:34;12.50;1.00
11894;DHT22;6006;49.696;8.662;2023-02-12T12:34:07;12.50;62.50
11894;DHT22;6006;49.696;8.662;2023-02-12T12:39:35;11.90;1.00
11894;DHT22;6006;49.696;8.662;2023-02-12T12:45:17;12.50;34.30
11894;DHT22;6006;49.696;8.662;2023-02-12T12:47:59;12.60;99.90
11894;DHT22;6006;49.696;8.662;2023-02-12T12:50:37;12.20;99.90
11894;DHT22;6006;49.696;8.662;2023-02-12T12:53:17;11.90;1.00
11894;DHT22;6006;49.696;8.662;2023-02-12T12:56:09;12.40;99.90
11894;DHT22;6006;49.696;8.662;2023-02-12T12:58:51;12.70;1.00
11894;DHT22;6006;49.696;8.662;2023-02-12T13:01:45;12.40;99.90
11894;DHT22;6006;49.696;8.662;2023-02-12T13:04:36;12.80;99.90
11894;DHT22;6006;49.696;8.662;2023-02-12T13:07:24;13.00;1.00
11894;DHT22;6006;49.696;8.662;2023-02-12T13:10:06;12.50;99.90
11894;DHT22;6006;49.696;8.662;2023-02-12T13:12:59;12.70;99.90
11894;DHT22;6006;49.696;8.662;2023-02-12T13:15:33;12.00;99.90
11894;DHT22;6006;49.696;8.662;2023-02-12T13:18:16;12.00;1.00
11894;DHT22;6006;49.696;8.662;2023-02-12T13:20:49;12.20;1.00
11894;DHT22;6006;49.696;8.662;2023-02-12T13:23:22;12.20;68.90
11894;DHT22;6006;49.696;8.662;2023-02-12T13:25:57;12.50;1.00
11894;DHT22;6006;49.696;8.662;2023-02-12T13:28:32;12.80;99.90
11894;DHT22;6006;49.696;8.662;2023-02-12T13:31:02;13.00;1.00
11894;DHT22;6006;49.696;8.662;2023-02-12T13:33:40;12.40;99.90
11894;DHT22;6006;49.696;8.662;2023-02-12T13:36:10;12.20;1.00
11894;DHT22;6006;49.696;8.662;2023-02-12T13:38:41;12.40;99.90
11894;DHT22;6006;49.696;8.662;2023-02-12T13:41:10;12.30;1.00
11894;DHT22;6006;49.696;8.662;2023-02-12T13:43:45;12.60;1.00
11894;DHT22;6006;49.696;8.662;2023-02-12T13:46:17;12.60;1.00
11894;DHT22;6006;49.696;8.662;2023-02-12T13:48:53;12.40;1.00
11894;DHT22;6006;49.696;8.662;2023-02-12T13:51:29;12.40;99.90
11894;DHT22;6006;49.696;8.662;2023-02-12T13:54:09;12.40;99.90
11894;DHT22;6006;49.696;8.662;2023-02-12T13:56:41;12.30;1.00
11894;DHT22;6006;49.696;8.662;2023-02-12T13:59:41;12.30;99.90
11894;DHT22;6006;49.696;8.662;2023-02-12T14:05:30;12.80;1.00
11894;DHT22;6006;49.696;8.662;2023-02-12T14:08:00;12.60;1.00
11894;DHT22;6006;49.696;8.662;2023-02-12T14:10:31;12.10;99.90
11894;DHT22;6006;49.696;8.662;2023-02-12T14:13:21;11.80;1.00
11894;DHT22;6006;49.696;8.662;2023-02-12T14:15:51;11.60;1.00
11894;DHT22;6006;49.696;8.662;2023-02-12T14:18:25;12.20;99.90
11894;DHT22;6006;49.696;8.662;2023-02-12T14:27:27;12.90;1.00
11894;DHT22;6006;49.696;8.662;2023-02-12T14:30:27;12.80;1.00
11894;DHT22;6006;49.696;8.662;2023-02-12T14:33:20;12.80;1.00
11894;DHT22;6006;49.696;8.662;2023-02-12T14:35:49;12.20;1.00
11894;DHT22;6006;49.696;8.662;2023-02-12T14:39:01;12.00;99.90
11894;DHT22;6006;49.696;8.662;2023-02-12T14:41:36;12.10;1.00
11894;DHT22;6006;49.696;8.662;2023-02-12T14:50:18;13.10;99.90
11894;DHT22;6006;49.696;8.662;2023-02-12T14:52:52;12.80;95.80
11894;DHT22;6006;49.696;8.662;2023-02-12T14:55:23;13.40;99.90
11894;DHT22;6006;49.696;8.662;2023-02-12T14:57:57;13.10;1.00
11894;DHT22;6006;49.696;8.662;2023-02-12T15:00:27;12.70;1.00
11894;DHT22;6006;49.696;8.662;2023-02-12T15:03:00;13.00;1.00
11894;DHT22;6006;49.696;8.662;2023-02-12T15:05:32;13.30;99.90
11894;DHT22;6006;49.696;8.662;2023-02-12T15:08:06;13.60;99.90
11894;DHT22;6006;49.696;8.662;2023-02-12T15:10:40;13.90;99.90
11894;DHT22;6006;49.696;8.662;2023-02-12T15:13:17;13.30;99.90
11894;DHT22;6006;49.696;8.662;2023-02-12T15:15:49;12.50;1.00
11894;DHT22;6006;49.696;8.662;2023-02-12T15:18:23;12.20;1.00
11894;DHT22;6006;49.696;8.662;2023-02-12T15:20:57;12.40;99.90
11894;DHT22;6006;49.696;8.662;2023-02-12T15:23:35;12.80;1.00
11894;DHT22;6006;49.696;8.662;2023-02-12T15:26:04;13.10;1.00
11894;DHT22;6006;49.696;8.662;2023-02-12T15:28:33;13.20;1.00
11894;DHT22;6006;49.696;8.662;2023-02-12T15:31:03;13.30;99.90
11894;DHT22;6006;49.696;8.662;2023-02-12T15:33:36;13.20;99.90
11894;DHT22;6006;49.696;8.662;2023-02-12T15:36:08;13.10;1.00
11894;DHT22;6006;49.696;8.662;2023-02-12T15:38:37;12.80;1.00
11894;DHT22;6006;49.696;8.662;2023-02-12T15:41:05;12.50;95.30
11894;DHT22;6006;49.696;8.662;2023-02-12T15:43:33;12.40;99.90
11894;DHT22;6006;49.696;8.662;2023-02-12T15:46:02;12.10;1.00
11894;DHT22;6006;49.696;8.662;2023-02-12T15:48:32;11.90;14.00
11894;DHT22;6006;49.696;8.662;2023-02-12T15:51:06;11.60;1.00
11894;DHT22;6006;49.696;8.662;2023-02-12T15:53:38;11.60;99.90
11894;DHT22;6006;49.696;8.662;2023-02-12T15:56:10;11.50;1.00
11894;DHT22;6006;49.696;8.662;2023-02-12T15:58:42;11.20;1.00
11894;DHT22;6006;49.696;8.662;2023-02-12T16:01:15;11.00;1.00
11894;DHT22;6006;49.696;8.662;2023-02-12T16:03:42;10.80;10.20
11894;DHT22;6006;49.696;8.662;2023-02-12T16:06:12;10.60;99.90
11894;DHT22;6006;49.696;8.662;2023-02-12T16:08:43;10.50;1.00
11894;DHT22;6006;49.696;8.662;2023-02-12T16:11:12;10.40;1.00
11894;DHT22;6006;49.696;8.662;2023-02-12T16:13:42;10.30;1.00
11894;DHT22;6006;49.696;8.662;2023-02-12T16:16:20;10.30;99.90
11894;DHT22;6006;49.696;8.662;2023-02-12T16:19:05;10.20;1.00
11894;DHT22;6006;49.696;8.662;2023-02-12T16:21:37;10.10;99.90
11894;DHT22;6006;49.696;8.662;2023-02-12T16:24:05;10.00;99.90
11894;DHT22;6006;49.696;8.662;2023-02-12T16:26:45;9.90;1.00
11894;DHT22;6006;49.696;8.662;2023-02-12T16:29:15;9.70;1.00
11894;DHT22;6006;49.696;8.662;2023-02-12T16:31:55;9.60;1.00
11894;DHT22;6006;49.696;8.662;2023-02-12T16:34:28;9.50;1.00
11894;DHT22;6006;49.696;8.662;2023-02-12T16:36:57;9.40;26.50
11894;DHT22;6006;49.696;8.662;2023-02-12T16:42:31;9.10;99.90
11894;DHT22;6006;49.696;8.662;2023-02-12T16:44:58;9.00;99.90
11894;DHT22;6006;49.696;8.662;2023-02-12T16:47:25;8.90;1.00
11894;DHT22;6006;49.696;8.662;2023-02-12T16:49:55;8.80;1.00
11894;DHT22;6006;49.696;8.662;2023-02-12T16:52:37;8.70;1.00
11894;DHT22;6006;49.696;8.662;2023-02-12T16:55:08;8.60;1.00
11894;DHT22;6006;49.696;8.662;2023-02-12T16:57:38;8.60;1.00
11894;DHT22;6006;49.696;8.662;2023-02-12T17:00:06;8.50;1.00
11894;DHT22;6006;49.696;8.662;2023-02-12T17:02:34;8.50;1.00